createdAt,value
2023-02-09T00:01:30.404Z,2.80
2023-02-09T00:03:59.297Z,2.80
2023-02-09T00:06:29.883Z,2.70
2023-02-09T00:08:58.665Z,2.70
2023-02-09T00:11:47.662Z,2.80
2023-02-09T00:14:20.204Z,3.80
2023-02-09T00:16:50.256Z,2.80
2023-02-09T00:19:20.311Z,2.90
2023-02-09T00:21:48.470Z,3.00
2023-02-09T00:24:16.275Z,2.90
2023-02-09T00:26:44.152Z,3.10
2023-02-09T00:29:12.336Z,4.00
2023-02-09T00:31:39.874Z,3.20
2023-02-09T00:34:08.115Z,3.20
2023-02-09T00:36:35.780Z,3.90
2023-02-09T00:39:04.027Z,3.30
2023-02-09T00:41:50.717Z,3.30
2023-02-09T00:44:18.396Z,3.40
2023-02-09T00:49:18.820Z,3.40
2023-02-09T00:51:47.006Z,3.50
2023-02-09T00:54:17.180Z,1.70
2023-02-09T00:56:46.652Z,3.50
2023-02-09T00:59:14.395Z,3.50
2023-02-09T01:01:42.537Z,3.50
2023-02-09T01:04:10.405Z,3.60
2023-02-09T01:06:38.118Z,3.60
2023-02-09T01:09:05.901Z,3.60
2023-02-09T01:11:33.548Z,3.70
2023-02-09T01:14:01.611Z,3.70
2023-02-09T01:16:30.600Z,6.50
2023-02-09T01:19:01.643Z,3.80
2023-02-09T01:21:30.563Z,3.90
2023-02-09T01:23:58.679Z,3.90
2023-02-09T01:26:26.375Z,3.90
2023-02-09T01:28:54.509Z,3.90
2023-02-09T01:31:24.028Z,3.90
2023-02-09T01:33:53.053Z,4.10
2023-02-09T01:36:21.475Z,4.20
2023-02-09T01:38:50.900Z,4.40
2023-02-09T01:41:18.680Z,4.60
2023-02-09T01:44:26.651Z,4.60
2023-02-09T01:46:54.368Z,4.80
2023-02-09T01:49:28.350Z,4.80
2023-02-09T01:51:57.527Z,4.90
2023-02-09T01:54:44.134Z,5.00
2023-02-09T01:57:16.257Z,5.00
2023-02-09T01:59:47.198Z,5.10
2023-02-09T02:02:15.110Z,5.20
2023-02-09T02:04:45.280Z,5.30
2023-02-09T02:07:20.602Z,5.40
2023-02-09T02:09:48.505Z,5.40
2023-02-09T02:12:16.458Z,5.60
2023-02-09T02:14:43.994Z,5.80
2023-02-09T02:17:18.128Z,5.70
2023-02-09T02:20:23.190Z,5.90
2023-02-09T02:23:14.300Z,6.10
2023-02-09T02:26:00.123Z,6.10
2023-02-09T02:29:08.056Z,6.30
2023-02-09T02:31:54.688Z,6.40
2023-02-09T02:34:26.110Z,6.40
2023-02-09T02:37:06.054Z,6.40
2023-02-09T02:39:44.753Z,6.30
2023-02-09T02:42:48.695Z,6.30
2023-02-09T02:45:22.216Z,6.20
2023-02-09T02:48:15.687Z,6.30
2023-02-09T02:51:19.499Z,6.40
2023-02-09T02:53:54.494Z,6.40
2023-02-09T02:56:28.771Z,6.40
2023-02-09T02:58:59.625Z,6.40
2023-02-09T03:01:34.847Z,6.60
2023-02-09T03:04:05.045Z,6.50
2023-02-09T03:06:34.226Z,6.50
2023-02-09T03:09:02.076Z,6.60
2023-02-09T03:11:40.880Z,3.60
2023-02-09T03:14:19.048Z,6.50
2023-02-09T03:16:55.984Z,6.60
2023-02-09T03:19:23.488Z,6.60
2023-02-09T03:22:06.132Z,6.60
2023-02-09T03:25:05.660Z,6.50
2023-02-09T03:27:57.116Z,6.50
2023-02-09T03:30:26.308Z,6.50
2023-02-09T03:32:57.327Z,6.60
2023-02-09T03:35:40.066Z,6.50
2023-02-09T03:38:07.802Z,6.60
2023-02-09T03:40:35.668Z,6.50
2023-02-09T03:45:31.764Z,6.50
2023-02-09T03:47:59.454Z,6.50
2023-02-09T03:50:27.189Z,6.50
2023-02-09T03:52:54.942Z,6.30
2023-02-09T03:55:22.746Z,6.60
2023-02-09T03:57:50.389Z,6.40
2023-02-09T04:00:19.016Z,6.40
2023-02-09T04:02:46.823Z,6.40
2023-02-09T04:05:14.598Z,6.40
2023-02-09T04:07:42.563Z,6.40
2023-02-09T04:10:10.533Z,6.20
2023-02-09T04:12:38.201Z,6.10
2023-02-09T04:15:06.422Z,6.10
2023-02-09T04:20:02.107Z,5.90
2023-02-09T04:22:31.214Z,5.80
2023-02-09T04:24:58.916Z,5.80
2023-02-09T04:27:28.518Z,5.60
2023-02-09T04:29:56.220Z,5.70
2023-02-09T04:32:23.829Z,5.70
2023-02-09T04:34:51.622Z,5.60
2023-02-09T04:37:19.223Z,5.60
2023-02-09T04:39:46.842Z,5.50
2023-02-09T04:42:14.393Z,5.50
2023-02-09T04:44:42.110Z,5.50
2023-02-09T04:47:09.921Z,5.30
2023-02-09T04:49:37.542Z,5.30
2023-02-09T04:52:05.310Z,5.00
2023-02-09T04:54:34.302Z,5.00
2023-02-09T04:57:20.638Z,4.90
2023-02-09T05:02:18.366Z,4.70
2023-02-09T05:04:46.046Z,4.70
2023-02-09T05:07:13.690Z,4.50
2023-02-09T05:09:42.131Z,4.40
2023-02-09T05:12:10.323Z,4.40
2023-02-09T05:14:38.261Z,4.30
2023-02-09T05:17:06.042Z,4.30
2023-02-09T05:19:36.940Z,4.30
2023-02-09T05:22:05.070Z,4.30
2023-02-09T05:24:34.112Z,4.20
2023-02-09T05:27:01.914Z,4.20
2023-02-09T05:29:29.869Z,4.10
2023-02-09T05:31:57.578Z,3.90
2023-02-09T05:36:55.853Z,3.60
2023-02-09T05:39:27.653Z,3.40
2023-02-09T05:42:17.972Z,3.30
2023-02-09T05:44:50.695Z,3.10
2023-02-09T05:47:22.221Z,3.00
2023-02-09T05:49:49.825Z,2.80
2023-02-09T05:52:19.497Z,2.80
2023-02-09T05:54:48.672Z,2.70
2023-02-09T05:57:16.571Z,2.60
2023-02-09T05:59:44.643Z,2.40
2023-02-09T06:02:12.562Z,2.30
2023-02-09T06:04:40.939Z,2.30
2023-02-09T06:07:11.631Z,2.30
2023-02-09T06:09:39.768Z,2.30
2023-02-09T06:12:07.348Z,2.30
2023-02-09T06:14:35.030Z,2.30
2023-02-09T06:17:04.693Z,2.10
2023-02-09T06:19:34.467Z,2.00
2023-02-09T06:22:02.527Z,1.90
2023-02-09T06:24:32.046Z,1.90
2023-02-09T06:27:01.110Z,1.90
2023-02-09T06:29:28.998Z,2.00
2023-02-09T06:31:56.723Z,2.00
2023-02-09T06:34:25.590Z,2.00
2023-02-09T06:36:53.685Z,2.00
2023-02-09T06:39:21.852Z,2.10
2023-02-09T06:41:50.148Z,2.10
2023-02-09T06:44:17.718Z,2.10
2023-02-09T06:46:45.266Z,2.20
2023-02-09T06:49:13.854Z,2.20
2023-02-09T06:51:41.601Z,2.30
2023-02-09T06:54:10.513Z,3.40
2023-02-09T06:56:38.516Z,3.00
2023-02-09T06:59:07.888Z,2.50
2023-02-09T07:01:38.073Z,2.50
2023-02-09T07:04:06.658Z,2.50
2023-02-09T07:06:35.736Z,2.50
2023-02-09T07:09:03.793Z,2.50
2023-02-09T07:11:35.770Z,2.40
2023-02-09T07:14:03.504Z,3.00
2023-02-09T07:16:31.231Z,2.30
2023-02-09T07:19:00.504Z,2.10
2023-02-09T07:21:29.300Z,1.90
2023-02-09T07:23:56.874Z,1.90
2023-02-09T07:26:26.381Z,1.70
2023-02-09T07:28:55.791Z,1.60
2023-02-09T07:31:24.157Z,1.50
2023-02-09T07:33:53.667Z,1.40
2023-02-09T07:36:21.635Z,1.40
2023-02-09T07:38:49.423Z,1.20
2023-02-09T07:41:25.176Z,1.30
2023-02-09T07:43:53.574Z,1.00
2023-02-09T07:46:23.309Z,1.10
2023-02-09T07:48:51.719Z,1.20
2023-02-09T07:51:25.327Z,1.30
2023-02-09T07:53:53.707Z,1.40
2023-02-09T07:56:22.714Z,1.40
2023-02-09T07:58:50.687Z,1.70
2023-02-09T08:01:19.041Z,1.70
2023-02-09T08:03:48.892Z,1.90
2023-02-09T08:06:41.124Z,2.10
2023-02-09T08:09:11.525Z,2.40
2023-02-09T08:11:49.056Z,2.60
2023-02-09T08:14:30.307Z,2.60
2023-02-09T08:17:24.375Z,2.90
2023-02-09T08:20:14.695Z,3.00
2023-02-09T08:22:46.807Z,3.10
2023-02-09T08:25:17.877Z,3.20
2023-02-09T08:27:46.152Z,3.20
2023-02-09T08:30:17.922Z,3.40
2023-02-09T08:32:45.796Z,3.40
2023-02-09T08:35:13.763Z,3.50
2023-02-09T08:37:41.441Z,3.60
2023-02-09T08:40:09.708Z,3.60
2023-02-09T08:42:37.471Z,3.70
2023-02-09T08:45:06.441Z,3.70
2023-02-09T08:47:34.545Z,3.80
2023-02-09T08:50:03.021Z,3.80
2023-02-09T08:52:30.687Z,3.90
2023-02-09T08:54:58.647Z,4.00
2023-02-09T08:57:41.948Z,4.00
2023-02-09T09:00:11.742Z,4.00
2023-02-09T09:02:43.436Z,4.00
2023-02-09T09:05:12.134Z,4.00
2023-02-09T09:07:44.386Z,4.10
2023-02-09T09:10:15.472Z,4.20
2023-02-09T09:12:43.810Z,4.20
2023-02-09T09:15:16.283Z,4.20
2023-02-09T09:17:44.680Z,4.30
2023-02-09T09:20:12.786Z,4.30
2023-02-09T09:22:40.506Z,4.40
2023-02-09T09:25:08.578Z,4.40
2023-02-09T09:27:36.342Z,4.40
2023-02-09T09:30:05.637Z,4.50
2023-02-09T09:32:33.627Z,4.60
2023-02-09T09:35:02.421Z,4.60
2023-02-09T09:37:32.929Z,4.80
2023-02-09T09:40:01.926Z,4.80
2023-02-09T09:42:47.003Z,4.70
2023-02-09T09:45:20.738Z,4.90
2023-02-09T09:47:48.887Z,4.90
2023-02-09T09:50:27.390Z,4.90
2023-02-09T09:53:03.512Z,5.40
2023-02-09T09:55:33.711Z,5.00
2023-02-09T09:58:05.727Z,5.10
2023-02-09T10:00:42.454Z,5.10
2023-02-09T10:03:22.121Z,5.10
2023-02-09T10:05:52.724Z,5.20
2023-02-09T10:08:31.953Z,5.20
2023-02-09T10:11:18.720Z,5.30
2023-02-09T10:13:51.461Z,5.40
2023-02-09T10:16:27.565Z,5.40
2023-02-09T10:19:00.984Z,5.50
2023-02-09T10:21:36.232Z,5.50
2023-02-09T10:24:13.048Z,5.60
2023-02-09T10:26:44.134Z,5.60
2023-02-09T10:29:12.927Z,5.70
2023-02-09T10:31:47.456Z,5.70
2023-02-09T10:34:19.537Z,5.80
2023-02-09T10:36:55.488Z,5.70
2023-02-09T10:39:30.321Z,5.80
2023-02-09T10:42:13.299Z,5.90
2023-02-09T10:44:50.608Z,5.90
2023-02-09T10:47:23.561Z,6.00
2023-02-09T10:49:53.420Z,6.00
2023-02-09T10:52:23.861Z,6.10
2023-02-09T10:54:57.285Z,6.10
2023-02-09T10:57:27.980Z,6.20
2023-02-09T11:00:01.578Z,6.30
2023-02-09T11:02:41.515Z,6.30
2023-02-09T11:05:21.802Z,6.40
2023-02-09T11:08:01.787Z,6.50
2023-02-09T11:10:32.682Z,6.50
2023-02-09T11:13:00.811Z,6.60
2023-02-09T11:15:35.471Z,6.70
2023-02-09T11:18:14.911Z,6.70
2023-02-09T11:20:55.359Z,6.70
2023-02-09T11:23:44.949Z,6.80
2023-02-09T11:26:29.007Z,6.80
2023-02-09T11:29:12.668Z,6.90
2023-02-09T11:31:40.501Z,7.00
2023-02-09T11:34:43.562Z,7.00
2023-02-09T11:37:25.490Z,7.10
2023-02-09T11:40:25.560Z,7.20
2023-02-09T11:42:53.362Z,7.30
2023-02-09T11:45:33.016Z,7.40
2023-02-09T11:48:26.687Z,7.40
2023-02-09T11:51:09.663Z,7.40
2023-02-09T11:53:37.360Z,7.40
2023-02-09T11:56:10.644Z,7.50
2023-02-09T11:58:41.617Z,7.50
2023-02-09T12:01:29.149Z,7.50
2023-02-09T12:04:05.645Z,7.50
2023-02-09T12:06:43.363Z,7.60
2023-02-09T12:09:25.156Z,7.60
2023-02-09T12:12:07.550Z,7.60
2023-02-09T12:14:56.700Z,7.70
2023-02-09T12:17:49.797Z,7.80
2023-02-09T12:20:28.989Z,7.90
2023-02-09T12:23:04.551Z,8.00
2023-02-09T12:25:45.543Z,8.00
2023-02-09T12:28:26.106Z,7.90
2023-02-09T12:30:53.708Z,8.00
2023-02-09T12:33:29.116Z,8.00
2023-02-09T12:36:19.982Z,8.00
2023-02-09T12:39:04.712Z,8.00
2023-02-09T12:41:41.105Z,8.10
2023-02-09T12:46:57.072Z,8.00
2023-02-09T12:49:27.540Z,8.10
2023-02-09T12:52:02.434Z,8.10
2023-02-09T12:54:36.585Z,8.20
2023-02-09T12:57:16.589Z,8.10
2023-02-09T12:59:50.924Z,8.20
2023-02-09T13:02:37.393Z,8.30
2023-02-09T13:05:37.207Z,8.30
2023-02-09T13:08:11.352Z,8.30
2023-02-09T13:10:56.626Z,8.30
2023-02-09T13:13:27.208Z,8.30
2023-02-09T13:16:15.050Z,8.40
2023-02-09T13:19:04.665Z,8.40
2023-02-09T13:21:53.062Z,8.40
2023-02-09T13:24:31.655Z,8.40
2023-02-09T13:27:00.515Z,8.40
2023-02-09T13:29:31.253Z,8.40
2023-02-09T13:32:31.472Z,8.50
2023-02-09T13:35:06.320Z,8.60
2023-02-09T13:37:49.987Z,8.60
2023-02-09T13:40:45.012Z,8.60
2023-02-09T13:43:19.308Z,8.50
2023-02-09T13:45:52.424Z,8.70
2023-02-09T13:48:35.474Z,8.60
2023-02-09T13:51:14.436Z,8.60
2023-02-09T13:53:42.159Z,8.60
2023-02-09T13:56:15.350Z,8.70
2023-02-09T13:58:43.114Z,8.80
2023-02-09T14:01:18.326Z,8.80
2023-02-09T14:03:57.868Z,11.10
2023-02-09T14:06:40.527Z,8.80
2023-02-09T14:09:18.125Z,8.80
2023-02-09T14:11:52.951Z,8.80
2023-02-09T14:15:13.618Z,8.80
2023-02-09T14:17:50.763Z,8.80
2023-02-09T14:20:25.232Z,8.70
2023-02-09T14:22:58.974Z,8.80
2023-02-09T14:25:28.863Z,8.70
2023-02-09T14:27:57.964Z,8.70
2023-02-09T14:30:29.721Z,8.80
2023-02-09T14:32:59.415Z,8.80
2023-02-09T14:35:29.907Z,8.90
2023-02-09T14:38:00.205Z,9.10
2023-02-09T14:40:28.152Z,9.10
2023-02-09T14:42:59.413Z,9.00
2023-02-09T14:45:43.348Z,9.00
2023-02-09T14:48:22.195Z,9.00
2023-02-09T14:50:54.836Z,9.00
2023-02-09T14:53:25.120Z,9.20
2023-02-09T14:55:54.982Z,9.10
2023-02-09T14:58:24.069Z,9.10
2023-02-09T15:00:53.692Z,9.10
2023-02-09T15:03:21.413Z,9.20
2023-02-09T15:05:51.399Z,9.10
2023-02-09T15:08:21.960Z,9.30
2023-02-09T15:10:53.475Z,9.30
2023-02-09T15:13:23.280Z,9.20
2023-02-09T15:15:51.054Z,9.20
2023-02-09T15:18:20.845Z,9.30
2023-02-09T15:20:49.395Z,9.30
2023-02-09T15:23:17.987Z,9.30
2023-02-09T15:25:46.784Z,9.20
2023-02-09T15:28:28.584Z,9.10
2023-02-09T15:30:58.461Z,9.00
2023-02-09T15:36:19.388Z,11.80
2023-02-09T15:38:48.565Z,8.90
2023-02-09T15:41:36.214Z,8.90
2023-02-09T15:44:33.485Z,8.90
2023-02-09T15:47:20.486Z,8.90
2023-02-09T15:49:48.493Z,8.90
2023-02-09T15:52:17.686Z,8.90
2023-02-09T15:54:47.096Z,8.80
2023-02-09T15:57:15.782Z,8.80
2023-02-09T15:59:46.383Z,8.70
2023-02-09T16:02:20.739Z,8.70
2023-02-09T16:04:49.328Z,8.60
2023-02-09T16:07:20.313Z,8.60
2023-02-09T16:09:48.574Z,8.40
2023-02-09T16:12:16.449Z,8.30
2023-02-09T16:14:45.395Z,8.30
2023-02-09T16:17:14.736Z,8.40
2023-02-09T16:19:46.449Z,8.30
2023-02-09T16:22:16.214Z,8.10
2023-02-09T16:24:48.322Z,8.00
2023-02-09T16:27:28.587Z,8.00
2023-02-09T16:30:08.823Z,7.90
2023-02-09T16:32:39.332Z,7.80
2023-02-09T16:35:17.093Z,7.80
2023-02-09T16:37:47.965Z,7.70
2023-02-09T16:40:32.175Z,7.70
2023-02-09T16:43:01.479Z,7.60
2023-02-09T16:45:31.125Z,7.60
2023-02-09T16:48:02.868Z,7.60
2023-02-09T16:50:38.730Z,7.60
2023-02-09T16:53:35.158Z,7.40
2023-02-09T16:56:10.375Z,7.40
2023-02-09T16:58:39.949Z,7.30
2023-02-09T17:01:20.988Z,7.30
2023-02-09T17:03:54.278Z,7.20
2023-02-09T17:06:29.921Z,7.10
2023-02-09T17:09:01.068Z,7.10
2023-02-09T17:11:29.016Z,7.00
2023-02-09T17:13:56.668Z,6.80
2023-02-09T17:16:29.091Z,6.90
2023-02-09T17:19:01.698Z,6.80
2023-02-09T17:21:33.230Z,6.50
2023-02-09T17:24:07.521Z,6.40
2023-02-09T17:26:40.411Z,6.20
2023-02-09T17:29:10.897Z,6.10
2023-02-09T17:31:52.703Z,6.10
2023-02-09T17:37:01.786Z,5.80
2023-02-09T17:39:30.836Z,5.70
2023-02-09T17:42:00.523Z,5.70
2023-02-09T17:44:45.694Z,5.40
2023-02-09T17:47:19.959Z,5.30
2023-02-09T17:49:47.978Z,5.10
2023-02-09T17:52:27.590Z,5.10
2023-02-09T17:57:25.478Z,5.00
2023-02-09T17:59:53.044Z,4.80
2023-02-09T18:02:20.732Z,4.80
2023-02-09T18:04:48.451Z,4.60
2023-02-09T18:07:20.819Z,4.60
2023-02-09T18:10:00.329Z,4.50
2023-02-09T18:12:29.534Z,4.50
2023-02-09T18:14:57.822Z,4.30
2023-02-09T18:17:25.843Z,4.50
2023-02-09T18:19:53.485Z,4.50
2023-02-09T18:22:24.873Z,4.60
2023-02-09T18:24:55.173Z,4.60
2023-02-09T18:32:24.037Z,4.60
2023-02-09T18:34:52.507Z,4.60
2023-02-09T18:37:21.369Z,4.70
2023-02-09T18:39:48.956Z,4.70
2023-02-09T18:42:17.078Z,4.70
2023-02-09T18:44:44.768Z,4.70
2023-02-09T18:47:12.468Z,4.80
2023-02-09T18:49:40.190Z,4.70
2023-02-09T18:52:08.744Z,4.70
2023-02-09T18:54:36.640Z,4.70
2023-02-09T18:57:04.314Z,4.70
2023-02-09T18:59:32.767Z,4.70
2023-02-09T19:02:00.867Z,4.70
2023-02-09T19:04:28.690Z,4.70
2023-02-09T19:06:56.387Z,4.70
2023-02-09T19:09:24.272Z,4.60
2023-02-09T19:11:52.208Z,4.60
2023-02-09T19:14:37.872Z,4.50
2023-02-09T19:17:07.114Z,4.40
2023-02-09T19:19:34.687Z,4.40
2023-02-09T19:22:02.623Z,4.30
2023-02-09T19:24:30.515Z,4.20
2023-02-09T19:26:58.223Z,4.10
2023-02-09T19:29:25.944Z,4.00
2023-02-09T19:31:55.674Z,4.00
2023-02-09T19:34:23.509Z,3.80
2023-02-09T19:36:51.100Z,3.80
2023-02-09T19:44:16.866Z,3.80
2023-02-09T19:49:13.424Z,3.60
2023-02-09T19:51:41.018Z,3.50
2023-02-09T19:54:08.709Z,3.40
2023-02-09T19:56:37.702Z,3.40
2023-02-09T20:01:33.651Z,3.40
2023-02-09T20:04:01.152Z,3.30
2023-02-09T20:06:30.897Z,3.30
2023-02-09T20:08:59.258Z,3.40
2023-02-09T20:13:55.179Z,3.50
2023-02-09T20:16:25.257Z,3.80
2023-02-09T20:18:53.545Z,4.00
2023-02-09T20:21:22.346Z,4.10
2023-02-09T20:23:54.410Z,4.30
2023-02-09T20:26:29.113Z,4.40
2023-02-09T20:28:57.431Z,4.50
2023-02-09T20:31:26.841Z,4.50
2023-02-09T20:33:55.617Z,4.60
2023-02-09T20:36:25.326Z,4.60
2023-02-09T20:38:53.319Z,4.60
2023-02-09T20:41:21.237Z,4.70
2023-02-09T20:44:07.822Z,4.60
2023-02-09T20:46:54.616Z,4.60
2023-02-09T20:49:31.464Z,4.60
2023-02-09T20:51:59.206Z,4.60
2023-02-09T20:54:27.305Z,4.50
2023-02-09T20:56:58.037Z,4.50
2023-02-09T21:01:55.481Z,4.50
2023-02-09T21:04:23.164Z,4.50
2023-02-09T21:06:51.082Z,4.50
2023-02-09T21:09:25.408Z,6.10
2023-02-09T21:11:54.468Z,4.50
2023-02-09T21:14:27.800Z,4.50
2023-02-09T21:17:00.553Z,4.50
2023-02-09T21:19:28.131Z,4.50
2023-02-09T21:21:56.000Z,4.40
2023-02-09T21:24:23.886Z,4.50
2023-02-09T21:26:51.913Z,4.50
2023-02-09T21:29:19.804Z,4.50
2023-02-09T21:34:16.087Z,4.00
2023-02-09T21:36:44.069Z,4.60
2023-02-09T21:39:11.764Z,4.60
2023-02-09T21:41:58.011Z,4.60
2023-02-09T21:44:25.826Z,4.60
2023-02-09T21:46:54.164Z,4.60
2023-02-09T21:51:49.957Z,4.60
2023-02-09T21:54:18.684Z,4.60
2023-02-09T21:56:46.327Z,4.60
2023-02-09T22:01:42.690Z,4.60
2023-02-09T22:06:38.336Z,4.60
2023-02-09T22:09:06.816Z,4.60
2023-02-09T22:11:34.661Z,4.60
2023-02-09T22:14:02.809Z,4.60
2023-02-09T22:16:30.562Z,4.20
2023-02-09T22:18:58.805Z,4.60
2023-02-09T22:21:26.324Z,4.60
2023-02-09T22:23:54.363Z,4.70
2023-02-09T22:26:21.993Z,4.60
2023-02-09T22:28:50.030Z,4.60
2023-02-09T22:31:20.737Z,4.60
2023-02-09T22:33:53.919Z,4.50
2023-02-09T22:36:23.380Z,4.60
2023-02-09T22:38:51.346Z,4.50
2023-02-09T22:41:21.761Z,4.50
2023-02-09T22:43:56.816Z,4.50
2023-02-09T22:46:30.867Z,4.50
2023-02-09T22:49:01.511Z,4.50
2023-02-09T22:51:30.743Z,4.50
2023-02-09T22:54:00.019Z,4.40
2023-02-09T22:56:29.316Z,4.40
2023-02-09T22:58:59.498Z,4.30
2023-02-09T23:01:27.771Z,4.30
2023-02-09T23:03:55.499Z,4.30
2023-02-09T23:06:27.505Z,4.20
2023-02-09T23:09:01.903Z,4.20
2023-02-09T23:11:30.788Z,4.20
2023-02-09T23:14:09.146Z,4.20
2023-02-09T23:16:38.671Z,4.20
2023-02-09T23:19:09.951Z,4.20
2023-02-09T23:21:40.144Z,4.20
2023-02-09T23:24:09.278Z,4.10
2023-02-09T23:26:38.978Z,4.20
2023-02-09T23:29:09.935Z,4.10
2023-02-09T23:31:38.094Z,4.10
2023-02-09T23:34:05.651Z,4.10
2023-02-09T23:36:34.890Z,4.10
2023-02-09T23:39:05.884Z,4.10
2023-02-09T23:41:34.938Z,4.10
2023-02-09T23:44:03.016Z,4.00
2023-02-09T23:46:30.993Z,4.10
2023-02-09T23:48:58.526Z,4.10
2023-02-09T23:51:32.605Z,4.00
2023-02-09T23:54:02.926Z,4.00
2023-02-09T23:56:36.837Z,4.00
2023-02-09T23:59:07.617Z,4.00
